createdAt,value
2023-05-04T00:00:05.553Z,0
2023-05-04T00:01:05.305Z,0
2023-05-04T00:02:05.292Z,0
2023-05-04T00:03:05.394Z,0
2023-05-04T00:04:05.446Z,0
2023-05-04T00:05:05.323Z,0
2023-05-04T00:06:05.288Z,0
2023-05-04T00:07:05.293Z,0
2023-05-04T00:08:05.301Z,0
2023-05-04T00:09:05.291Z,0
2023-05-04T00:10:05.481Z,0
2023-05-04T00:11:05.289Z,0
2023-05-04T00:12:05.291Z,0
2023-05-04T00:13:05.330Z,0
2023-05-04T00:14:05.310Z,0
2023-05-04T00:15:05.291Z,0
2023-05-04T00:16:05.319Z,0
2023-05-04T00:17:05.292Z,0
2023-05-04T00:18:05.397Z,0
2023-05-04T00:19:05.296Z,0
2023-05-04T00:20:05.502Z,0
2023-05-04T00:21:05.326Z,0
2023-05-04T00:22:05.304Z,0
2023-05-04T00:23:05.317Z,0
2023-05-04T00:24:05.302Z,0
2023-05-04T00:25:05.305Z,0
2023-05-04T00:26:05.305Z,0
2023-05-04T00:27:05.303Z,0
2023-05-04T00:28:05.312Z,0
2023-05-04T00:29:05.310Z,0
2023-05-04T00:30:05.444Z,0
2023-05-04T00:31:05.324Z,0
2023-05-04T00:32:05.381Z,0
2023-05-04T00:33:05.320Z,0
2023-05-04T00:34:05.319Z,0
2023-05-04T00:35:05.310Z,0
2023-05-04T00:36:05.310Z,0
2023-05-04T00:37:05.359Z,0
2023-05-04T00:38:05.317Z,0
2023-05-04T00:39:05.314Z,0
2023-05-04T00:40:05.460Z,0
2023-05-04T00:41:05.315Z,0
2023-05-04T00:42:05.332Z,0
2023-05-04T00:43:05.314Z,0
2023-05-04T00:44:05.314Z,0
2023-05-04T00:45:05.312Z,0
2023-05-04T00:46:05.314Z,0
2023-05-04T00:47:05.374Z,0
2023-05-04T00:48:05.345Z,0
2023-05-04T00:49:05.323Z,0
2023-05-04T00:50:05.509Z,0
2023-05-04T00:51:05.318Z,0
2023-05-04T00:52:05.333Z,0
2023-05-04T00:53:05.345Z,0
2023-05-04T00:54:05.347Z,0
2023-05-04T00:55:05.321Z,0
2023-05-04T00:56:05.326Z,0
2023-05-04T00:57:05.326Z,0
2023-05-04T00:58:05.326Z,0
2023-05-04T00:59:05.329Z,0
2023-05-04T01:00:05.603Z,0
2023-05-04T01:01:05.377Z,0
2023-05-04T01:02:05.335Z,0
2023-05-04T01:03:05.523Z,0
2023-05-04T01:04:05.464Z,0
2023-05-04T01:05:05.332Z,0
2023-05-04T01:06:05.345Z,0
2023-05-04T01:07:05.339Z,0
2023-05-04T01:08:05.339Z,0
2023-05-04T01:09:05.363Z,0
2023-05-04T01:10:05.462Z,0
2023-05-04T01:11:05.341Z,0
2023-05-04T01:12:05.339Z,0
2023-05-04T01:13:05.387Z,0
2023-05-04T01:14:05.337Z,0
2023-05-04T01:15:05.338Z,0
2023-05-04T01:16:05.353Z,0
2023-05-04T01:17:05.527Z,0
2023-05-04T01:18:05.367Z,0
2023-05-04T01:19:05.335Z,0
2023-05-04T01:20:05.588Z,0
2023-05-04T01:21:05.347Z,0
2023-05-04T01:22:05.349Z,0
2023-05-04T01:23:05.344Z,0
2023-05-04T01:24:05.344Z,0
2023-05-04T01:25:05.374Z,0
2023-05-04T01:26:05.346Z,0
2023-05-04T01:27:05.348Z,0
2023-05-04T01:28:05.349Z,0
2023-05-04T01:29:05.346Z,0
2023-05-04T01:30:05.558Z,0
2023-05-04T01:31:05.374Z,0
2023-05-04T01:32:05.344Z,0
2023-05-04T01:33:05.369Z,0
2023-05-04T01:34:05.355Z,0
2023-05-04T01:35:05.347Z,0
2023-05-04T01:36:05.352Z,0
2023-05-04T01:37:05.350Z,0
2023-05-04T01:38:05.371Z,0
2023-05-04T01:39:05.347Z,0
2023-05-04T01:40:05.512Z,0
2023-05-04T01:41:05.376Z,0
2023-05-04T01:42:05.344Z,0
2023-05-04T01:43:05.351Z,0
2023-05-04T01:44:05.387Z,0
2023-05-04T01:45:05.347Z,0
2023-05-04T01:46:05.367Z,0
2023-05-04T01:47:05.349Z,0
2023-05-04T01:48:05.361Z,0
2023-05-04T01:49:05.349Z,0
2023-05-04T01:50:05.472Z,0
2023-05-04T01:51:05.350Z,0
2023-05-04T01:52:05.344Z,0
2023-05-04T01:53:05.349Z,0
2023-05-04T01:54:05.350Z,0
2023-05-04T01:55:05.350Z,0
2023-05-04T01:56:05.350Z,0
2023-05-04T01:57:05.377Z,0
2023-05-04T01:58:05.352Z,0
2023-05-04T01:59:05.346Z,0
2023-05-04T02:00:05.548Z,0
2023-05-04T02:01:05.352Z,0
2023-05-04T02:02:05.480Z,0
2023-05-04T02:03:05.416Z,0
2023-05-04T02:04:05.399Z,0
2023-05-04T02:05:05.354Z,0
2023-05-04T02:06:05.372Z,0
2023-05-04T02:07:05.371Z,0
2023-05-04T02:08:05.350Z,0
2023-05-04T02:09:05.350Z,0
2023-05-04T02:10:05.507Z,0
2023-05-04T02:11:05.357Z,0
2023-05-04T02:12:05.352Z,0
2023-05-04T02:13:05.410Z,0
2023-05-04T02:14:05.349Z,0
2023-05-04T02:15:05.351Z,0
2023-05-04T02:16:05.439Z,0
2023-05-04T02:17:05.353Z,0
2023-05-04T02:18:05.376Z,0
2023-05-04T02:19:05.352Z,0
2023-05-04T02:20:05.586Z,0
2023-05-04T02:21:05.357Z,0
2023-05-04T02:22:05.351Z,0
2023-05-04T02:23:05.367Z,0
2023-05-04T02:24:05.352Z,0
2023-05-04T02:25:05.351Z,0
2023-05-04T02:26:05.352Z,0
2023-05-04T02:27:05.360Z,0
2023-05-04T02:28:05.357Z,0
2023-05-04T02:29:05.383Z,0
2023-05-04T02:30:05.562Z,0
2023-05-04T02:31:05.355Z,0
2023-05-04T02:32:05.382Z,0
2023-05-04T02:33:05.393Z,0
2023-05-04T02:34:05.357Z,0
2023-05-04T02:35:05.356Z,0
2023-05-04T02:36:05.363Z,0
2023-05-04T02:37:07.182Z,0
2023-05-04T02:38:05.353Z,0
2023-05-04T02:39:05.375Z,0
2023-05-04T02:40:05.568Z,0
2023-05-04T02:41:05.359Z,0
2023-05-04T02:42:05.364Z,0
2023-05-04T02:43:05.369Z,0
2023-05-04T02:44:05.359Z,0
2023-05-04T02:45:05.389Z,0
2023-05-04T02:46:05.394Z,0
2023-05-04T02:47:05.358Z,0
2023-05-04T02:48:05.366Z,0
2023-05-04T02:49:05.364Z,0
2023-05-04T02:50:05.530Z,0
2023-05-04T02:51:05.361Z,0
2023-05-04T02:52:05.363Z,0
2023-05-04T02:53:05.359Z,0
2023-05-04T02:54:05.360Z,0
2023-05-04T02:55:05.369Z,0
2023-05-04T02:56:05.362Z,0
2023-05-04T02:57:05.362Z,0
2023-05-04T02:58:05.361Z,0
2023-05-04T02:59:05.366Z,0
2023-05-04T03:00:05.575Z,0
2023-05-04T03:01:05.414Z,0
2023-05-04T03:02:05.367Z,0
2023-05-04T03:03:05.413Z,0
2023-05-04T03:04:05.386Z,0
2023-05-04T03:05:05.364Z,0
2023-05-04T03:06:05.370Z,0
2023-05-04T03:07:05.364Z,0
2023-05-04T03:08:05.369Z,0
2023-05-04T03:09:05.364Z,0
2023-05-04T03:10:05.491Z,0
2023-05-04T03:11:05.377Z,0
2023-05-04T03:12:05.365Z,0
2023-05-04T03:13:05.378Z,0
2023-05-04T03:14:05.360Z,0
2023-05-04T03:15:05.361Z,0
2023-05-04T03:16:05.412Z,0
2023-05-04T03:17:05.409Z,0
2023-05-04T03:18:05.413Z,0
2023-05-04T03:19:05.365Z,0
2023-05-04T03:20:05.508Z,0
2023-05-04T03:21:05.371Z,0
2023-05-04T03:22:05.364Z,0
2023-05-04T03:23:05.374Z,0
2023-05-04T03:24:05.383Z,0
2023-05-04T03:25:05.365Z,0
2023-05-04T03:26:05.373Z,0
2023-05-04T03:27:05.365Z,0
2023-05-04T03:28:05.368Z,0
2023-05-04T03:29:05.370Z,2
2023-05-04T03:30:05.586Z,2
2023-05-04T03:31:05.370Z,2
2023-05-04T03:32:05.393Z,2
2023-05-04T03:33:05.432Z,2
2023-05-04T03:34:05.371Z,4
2023-05-04T03:35:05.366Z,4
2023-05-04T03:36:05.370Z,4
2023-05-04T03:37:05.372Z,4
2023-05-04T03:38:05.368Z,4
2023-05-04T03:39:05.379Z,9
2023-05-04T03:40:05.561Z,9
2023-05-04T03:41:05.369Z,9
2023-05-04T03:42:05.367Z,9
2023-05-04T03:43:05.376Z,9
2023-05-04T03:44:05.377Z,17
2023-05-04T03:45:05.372Z,17
2023-05-04T03:46:05.399Z,17
2023-05-04T03:47:05.372Z,17
2023-05-04T03:48:05.449Z,17
2023-05-04T03:49:05.403Z,27
2023-05-04T03:50:05.606Z,27
2023-05-04T03:51:05.375Z,27
2023-05-04T03:52:05.372Z,27
2023-05-04T03:53:05.376Z,27
2023-05-04T03:54:05.373Z,40
2023-05-04T03:55:05.384Z,40
2023-05-04T03:56:05.382Z,40
2023-05-04T03:57:05.376Z,40
2023-05-04T03:58:05.378Z,40
2023-05-04T03:59:05.377Z,53
2023-05-04T04:00:05.489Z,53
2023-05-04T04:01:05.415Z,53
2023-05-04T04:02:05.387Z,53
2023-05-04T04:03:05.487Z,53
2023-05-04T04:04:05.478Z,65
2023-05-04T04:05:05.439Z,65
2023-05-04T04:06:05.390Z,65
2023-05-04T04:07:05.396Z,65
2023-05-04T04:08:05.394Z,65
2023-05-04T04:09:05.384Z,77
2023-05-04T04:10:05.645Z,77
2023-05-04T04:11:05.387Z,77
2023-05-04T04:12:05.385Z,77
2023-05-04T04:13:05.405Z,77
2023-05-04T04:14:05.388Z,94
2023-05-04T04:15:05.388Z,94
2023-05-04T04:16:05.401Z,94
2023-05-04T04:17:05.386Z,94
2023-05-04T04:18:05.419Z,94
2023-05-04T04:19:05.387Z,114
2023-05-04T04:20:05.746Z,114
2023-05-04T04:21:05.428Z,114
2023-05-04T04:22:05.389Z,114
2023-05-04T04:23:05.391Z,114
2023-05-04T04:24:05.400Z,131
2023-05-04T04:25:05.395Z,131
2023-05-04T04:26:05.398Z,131
2023-05-04T04:27:05.392Z,131
2023-05-04T04:28:05.395Z,131
2023-05-04T04:29:05.396Z,144
2023-05-04T04:30:05.544Z,144
2023-05-04T04:31:05.419Z,144
2023-05-04T04:32:05.396Z,144
2023-05-04T04:33:05.416Z,144
2023-05-04T04:34:05.401Z,162
2023-05-04T04:35:05.396Z,162
2023-05-04T04:36:05.400Z,162
2023-05-04T04:37:05.543Z,162
2023-05-04T04:38:05.422Z,162
2023-05-04T04:39:05.406Z,191
2023-05-04T04:40:05.621Z,191
2023-05-04T04:41:05.400Z,191
2023-05-04T04:42:05.405Z,191
2023-05-04T04:43:05.406Z,191
2023-05-04T04:44:05.404Z,215
2023-05-04T04:45:05.410Z,215
2023-05-04T04:46:05.405Z,215
2023-05-04T04:47:05.512Z,215
2023-05-04T04:48:05.438Z,215
2023-05-04T04:49:05.409Z,246
2023-05-04T04:50:05.762Z,246
2023-05-04T04:51:05.457Z,246
2023-05-04T04:52:05.401Z,246
2023-05-04T04:53:05.584Z,246
2023-05-04T04:54:05.412Z,269
2023-05-04T04:55:05.411Z,269
2023-05-04T04:56:05.400Z,269
2023-05-04T04:57:05.405Z,269
2023-05-04T04:58:05.409Z,269
2023-05-04T04:59:05.408Z,295
2023-05-04T05:00:05.617Z,295
2023-05-04T05:01:05.477Z,295
2023-05-04T05:02:05.405Z,295
2023-05-04T05:03:05.442Z,295
2023-05-04T05:04:05.412Z,323
2023-05-04T05:05:05.508Z,323
2023-05-04T05:06:05.406Z,323
2023-05-04T05:07:05.413Z,323
2023-05-04T05:08:05.409Z,323
2023-05-04T05:09:05.449Z,350
2023-05-04T05:10:05.677Z,350
2023-05-04T05:11:05.415Z,350
2023-05-04T05:12:05.413Z,350
2023-05-04T05:13:05.430Z,350
2023-05-04T05:14:05.427Z,390
2023-05-04T05:15:05.413Z,390
2023-05-04T05:16:05.422Z,390
2023-05-04T05:17:05.536Z,390
2023-05-04T05:18:05.418Z,390
2023-05-04T05:19:05.418Z,405
2023-05-04T05:20:05.596Z,405
2023-05-04T05:21:05.429Z,405
2023-05-04T05:22:05.423Z,405
2023-05-04T05:23:05.434Z,405
2023-05-04T05:24:05.425Z,431
2023-05-04T05:25:05.451Z,431
2023-05-04T05:26:05.424Z,431
2023-05-04T05:27:05.438Z,431
2023-05-04T05:28:05.431Z,431
2023-05-04T05:29:05.428Z,455
2023-05-04T05:30:05.792Z,455
2023-05-04T05:31:05.516Z,455
2023-05-04T05:32:05.435Z,455
2023-05-04T05:33:05.456Z,455
2023-05-04T05:34:05.430Z,473
2023-05-04T05:35:05.446Z,473
2023-05-04T05:36:05.433Z,473
2023-05-04T05:37:05.434Z,473
2023-05-04T05:38:05.440Z,473
2023-05-04T05:39:05.440Z,508
2023-05-04T05:40:05.730Z,508
2023-05-04T05:41:05.470Z,508
2023-05-04T05:42:05.444Z,508
2023-05-04T05:43:05.452Z,508
2023-05-04T05:44:05.444Z,545
2023-05-04T05:45:05.450Z,545
2023-05-04T05:46:05.498Z,545
2023-05-04T05:47:05.448Z,545
2023-05-04T05:48:05.517Z,545
2023-05-04T05:49:05.447Z,597
2023-05-04T05:50:05.653Z,597
2023-05-04T05:51:05.453Z,597
2023-05-04T05:52:05.457Z,597
2023-05-04T05:53:05.466Z,597
2023-05-04T05:54:05.458Z,643
2023-05-04T05:55:05.459Z,643
2023-05-04T05:56:05.459Z,643
2023-05-04T05:57:05.488Z,643
2023-05-04T05:58:05.458Z,643
2023-05-04T05:59:05.472Z,697
2023-05-04T06:00:05.622Z,697
2023-05-04T06:01:05.464Z,697
2023-05-04T06:02:05.464Z,697
2023-05-04T06:03:05.505Z,697
2023-05-04T06:04:05.601Z,773
2023-05-04T06:05:05.651Z,773
2023-05-04T06:06:05.475Z,773
2023-05-04T06:07:05.472Z,773
2023-05-04T06:08:05.469Z,773
2023-05-04T06:09:05.470Z,857
2023-05-04T06:10:05.665Z,857
2023-05-04T06:11:05.471Z,857
2023-05-04T06:12:05.470Z,857
2023-05-04T06:13:05.526Z,857
2023-05-04T06:14:05.476Z,959
2023-05-04T06:15:05.481Z,959
2023-05-04T06:16:05.530Z,959
2023-05-04T06:17:05.475Z,959
2023-05-04T06:18:05.523Z,959
2023-05-04T06:19:05.480Z,1043
2023-05-04T06:20:05.821Z,1043
2023-05-04T06:21:05.484Z,1043
2023-05-04T06:22:05.482Z,1043
2023-05-04T06:23:05.599Z,1043
2023-05-04T06:24:05.495Z,1141
2023-05-04T06:25:07.850Z,1141
2023-05-04T06:26:05.482Z,1141
2023-05-04T06:27:05.486Z,1141
2023-05-04T06:28:05.492Z,1141
2023-05-04T06:29:05.526Z,1323
2023-05-04T06:30:05.640Z,1323
2023-05-04T06:31:05.500Z,1323
2023-05-04T06:32:05.564Z,1323
2023-05-04T06:33:05.545Z,1323
2023-05-04T06:34:05.511Z,1697
2023-05-04T06:35:05.503Z,1697
2023-05-04T06:36:05.495Z,1697
2023-05-04T06:37:05.499Z,1697
2023-05-04T06:38:05.523Z,1697
2023-05-04T06:39:05.495Z,2019
2023-05-04T06:40:05.555Z,2019
2023-05-04T06:41:05.500Z,2019
2023-05-04T06:42:05.501Z,2019
2023-05-04T06:43:05.513Z,2019
2023-05-04T06:44:05.519Z,2601
2023-05-04T06:45:05.533Z,2601
2023-05-04T06:46:05.542Z,2601
2023-05-04T06:47:05.515Z,2601
2023-05-04T06:48:05.547Z,2601
2023-05-04T06:49:05.518Z,3311
2023-05-04T06:50:05.658Z,3311
2023-05-04T06:51:05.518Z,3311
2023-05-04T06:52:05.509Z,6331
2023-05-04T06:53:05.512Z,6200
2023-05-04T06:54:05.527Z,3191
2023-05-04T06:55:05.514Z,4312
2023-05-04T06:56:05.511Z,5674
2023-05-04T06:57:05.516Z,5997
2023-05-04T06:58:05.511Z,4232
2023-05-04T06:59:05.513Z,6665
2023-05-04T07:00:05.769Z,6665
2023-05-04T07:01:05.605Z,6665
2023-05-04T07:02:05.515Z,6665
2023-05-04T07:03:05.545Z,6665
2023-05-04T07:04:05.700Z,6670
2023-05-04T07:05:05.526Z,6766
2023-05-04T07:06:05.530Z,6744
2023-05-04T07:07:05.527Z,6744
2023-05-04T07:08:05.517Z,6744
2023-05-04T07:09:05.524Z,6744
2023-05-04T07:10:05.639Z,6353
2023-05-04T07:11:05.524Z,6152
2023-05-04T07:12:05.531Z,6657
2023-05-04T07:13:05.546Z,6803
2023-05-04T07:14:05.529Z,6744
2023-05-04T07:15:05.532Z,6647
2023-05-04T07:16:05.547Z,6703
2023-05-04T07:17:05.590Z,6454
2023-05-04T07:18:05.574Z,6454
2023-05-04T07:19:05.531Z,6633
2023-05-04T07:20:05.760Z,5174
2023-05-04T07:21:16.574Z,5947
2023-05-04T07:22:05.539Z,6324
2023-05-04T07:23:05.536Z,6324
2023-05-04T07:24:05.541Z,6324
2023-05-04T07:25:05.539Z,6742
2023-05-04T07:26:05.542Z,6756
2023-05-04T07:27:05.539Z,6711
2023-05-04T07:28:05.547Z,6790
2023-05-04T07:29:05.544Z,6736
2023-05-04T07:30:05.661Z,6292
2023-05-04T07:31:05.544Z,6010
2023-05-04T07:32:05.551Z,6005
2023-05-04T07:33:05.628Z,6422
2023-05-04T07:34:05.545Z,5957
2023-05-04T07:35:05.547Z,6100
2023-05-04T07:36:05.546Z,6285
2023-05-04T07:37:05.547Z,6418
2023-05-04T07:38:05.551Z,6569
2023-05-04T07:39:05.662Z,6717
2023-05-04T07:40:05.813Z,6644
2023-05-04T07:41:05.544Z,6668
2023-05-04T07:42:05.548Z,6733
2023-05-04T07:43:05.556Z,6229
2023-05-04T07:44:05.673Z,6474
2023-05-04T07:45:05.549Z,6637
2023-05-04T07:46:05.582Z,6731
2023-05-04T07:47:05.554Z,6083
2023-05-04T07:48:05.586Z,5855
2023-05-04T07:49:05.582Z,5640
2023-05-04T07:50:05.858Z,5574
2023-05-04T07:51:05.555Z,5574
2023-05-04T07:52:05.701Z,6150
2023-05-04T07:53:05.558Z,6230
2023-05-04T07:54:05.565Z,6577
2023-05-04T07:55:05.562Z,6855
2023-05-04T07:56:05.558Z,6830
2023-05-04T07:57:05.558Z,6834
2023-05-04T07:58:05.557Z,6730
2023-05-04T07:59:05.561Z,6725
2023-05-04T08:00:05.812Z,6440
2023-05-04T08:01:05.565Z,6200
2023-05-04T08:02:05.585Z,6037
2023-05-04T08:03:05.601Z,6265
2023-05-04T08:04:05.568Z,6468
2023-05-04T08:05:05.589Z,6622
2023-05-04T08:06:05.567Z,6697
2023-05-04T08:07:05.565Z,6660
2023-05-04T08:08:05.568Z,6560
2023-05-04T08:09:05.566Z,6589
2023-05-04T08:10:05.759Z,6589
2023-05-04T08:11:18.966Z,6589
2023-05-04T08:12:05.567Z,6148
2023-05-04T08:13:05.640Z,6342
2023-05-04T08:14:05.573Z,6548
2023-05-04T08:15:05.788Z,6566
2023-05-04T08:16:05.567Z,6394
2023-05-04T08:17:05.570Z,6554
2023-05-04T08:18:05.577Z,6702
2023-05-04T08:19:05.574Z,6694
2023-05-04T08:20:05.585Z,6823
2023-05-04T08:21:05.617Z,6856
2023-05-04T08:22:05.781Z,6801
2023-05-04T08:23:05.574Z,6537
2023-05-04T08:24:05.569Z,6015
2023-05-04T08:25:05.732Z,5802
2023-05-04T08:26:05.574Z,6001
2023-05-04T08:27:08.291Z,6001
2023-05-04T08:28:05.575Z,5886
2023-05-04T08:29:05.575Z,5886
2023-05-04T08:30:05.576Z,5886
2023-05-04T08:31:05.581Z,6328
2023-05-04T08:32:05.774Z,6580
2023-05-04T08:33:05.601Z,6660
2023-05-04T08:34:05.596Z,6722
2023-05-04T08:35:05.678Z,6727
2023-05-04T08:36:05.580Z,6668
2023-05-04T08:37:05.654Z,6497
2023-05-04T08:38:05.580Z,6489
2023-05-04T08:39:05.582Z,6725
2023-05-04T08:40:05.588Z,6366
2023-05-04T08:41:05.579Z,6418
2023-05-04T08:42:05.585Z,6452
2023-05-04T08:43:05.588Z,6494
2023-05-04T08:44:05.580Z,6611
2023-05-04T08:45:05.849Z,6524
2023-05-04T08:46:05.637Z,6525
2023-05-04T08:47:05.586Z,6522
2023-05-04T08:48:05.592Z,6288
2023-05-04T08:49:05.590Z,6572
2023-05-04T08:50:05.590Z,6631
2023-05-04T08:51:05.590Z,6639
2023-05-04T08:52:05.599Z,6628
2023-05-04T08:53:05.624Z,6602
2023-05-04T08:54:05.593Z,6534
2023-05-04T08:55:05.723Z,6569
2023-05-04T08:56:05.607Z,6554
2023-05-04T08:57:05.596Z,6536
2023-05-04T08:58:05.599Z,6488
2023-05-04T08:59:05.602Z,6525
2023-05-04T09:00:05.600Z,6601
2023-05-04T09:01:05.660Z,6516
2023-05-04T09:02:05.668Z,6387
2023-05-04T09:03:05.638Z,6482
2023-05-04T09:04:05.621Z,6518
2023-05-04T09:05:05.715Z,6524
2023-05-04T09:06:05.612Z,6485
2023-05-04T09:07:05.605Z,6521
2023-05-04T09:08:05.624Z,6451
2023-05-04T09:09:05.647Z,6504
2023-05-04T09:10:05.607Z,6474
2023-05-04T09:11:05.630Z,6465
2023-05-04T09:12:05.608Z,6464
2023-05-04T09:13:05.647Z,6462
2023-05-04T09:14:05.614Z,6375
2023-05-04T09:15:05.967Z,6276
2023-05-04T09:16:05.612Z,6278
2023-05-04T09:17:05.669Z,6315
2023-05-04T09:18:05.653Z,6197
2023-05-04T09:19:05.621Z,6294
2023-05-04T09:20:05.623Z,6294
2023-05-04T09:21:05.638Z,6324
2023-05-04T09:22:05.623Z,6358
2023-05-04T09:23:05.623Z,6345
2023-05-04T09:24:05.628Z,6320
2023-05-04T09:25:06.112Z,6273
2023-05-04T09:26:05.656Z,6209
2023-05-04T09:27:05.625Z,6203
2023-05-04T09:28:05.625Z,5644
2023-05-04T09:29:05.625Z,6109
2023-05-04T09:30:05.632Z,6102
2023-05-04T09:31:05.670Z,6146
2023-05-04T09:32:05.633Z,6088
2023-05-04T09:33:05.667Z,6069
2023-05-04T09:34:05.630Z,6069
2023-05-04T09:35:05.859Z,6122
2023-05-04T09:36:05.630Z,6102
2023-05-04T09:38:05.632Z,6073
2023-05-04T09:39:05.632Z,6073
2023-05-04T09:40:05.632Z,6128
2023-05-04T09:41:05.703Z,6065
2023-05-04T09:42:05.632Z,6084
2023-05-04T09:43:05.634Z,6076
2023-05-04T09:44:05.640Z,6152
2023-05-04T09:45:05.851Z,6083
2023-05-04T09:46:05.649Z,6059
2023-05-04T09:47:05.639Z,6051
2023-05-04T09:48:05.683Z,6009
2023-05-04T09:49:05.637Z,5992
2023-05-04T09:50:05.711Z,6051
2023-05-04T09:51:05.644Z,6009
2023-05-04T09:52:05.687Z,6010
2023-05-04T09:53:05.645Z,6023
2023-05-04T09:54:05.652Z,5988
2023-05-04T09:55:05.845Z,5962
2023-05-04T09:56:07.415Z,5899
2023-05-04T09:57:05.676Z,5906
2023-05-04T09:58:05.646Z,5895
2023-05-04T09:59:05.684Z,5910
2023-05-04T10:00:05.664Z,5849
2023-05-04T10:01:05.658Z,5875
2023-05-04T10:02:14.335Z,5929
2023-05-04T10:03:05.692Z,5950
2023-05-04T10:04:05.669Z,5961
2023-05-04T10:05:05.886Z,5953
2023-05-04T10:06:05.681Z,5937
2023-05-04T10:07:05.675Z,5928
2023-05-04T10:08:05.654Z,5916
2023-05-04T10:09:05.660Z,5898
2023-05-04T10:10:05.665Z,5883
2023-05-04T10:11:05.684Z,5857
2023-05-04T10:12:05.655Z,5844
2023-05-04T10:13:05.734Z,5813
2023-05-04T10:14:05.669Z,5797
2023-05-04T10:15:05.788Z,5780
2023-05-04T10:16:05.703Z,5790
2023-05-04T10:17:05.656Z,5766
2023-05-04T10:18:05.663Z,5758
2023-05-04T10:19:05.664Z,5750
2023-05-04T10:20:05.671Z,5740
2023-05-04T10:21:05.662Z,5740
2023-05-04T10:22:05.659Z,5728
2023-05-04T10:23:05.665Z,5695
2023-05-04T10:24:05.668Z,5672
2023-05-04T10:25:05.874Z,5675
2023-05-04T10:26:05.668Z,5675
2023-05-04T10:27:05.681Z,5675
2023-05-04T10:28:05.668Z,5675
2023-05-04T10:29:05.706Z,5675
2023-05-04T10:30:05.680Z,5675
2023-05-04T10:31:05.681Z,5675
2023-05-04T10:32:05.707Z,5675
2023-05-04T10:33:05.720Z,5675
2023-05-04T10:34:05.675Z,5675
2023-05-04T10:35:05.916Z,5675
2023-05-04T10:36:05.681Z,5675
2023-05-04T10:37:05.683Z,5675
2023-05-04T10:38:05.680Z,5675
2023-05-04T10:39:05.685Z,5675
2023-05-04T10:40:07.715Z,5675
2023-05-04T10:41:05.680Z,5675
2023-05-04T10:42:05.704Z,5675
2023-05-04T10:43:05.694Z,5675
2023-05-04T10:44:05.683Z,5675
2023-05-04T10:45:05.890Z,5675
2023-05-04T10:46:05.775Z,5675
2023-05-04T10:47:05.780Z,5675
2023-05-04T10:48:05.736Z,5675
2023-05-04T10:49:05.693Z,5675
2023-05-04T10:50:05.729Z,5675
2023-05-04T10:51:05.710Z,5675
2023-05-04T10:52:05.749Z,5675
2023-05-04T10:53:05.707Z,5675
2023-05-04T10:54:05.693Z,5675
2023-05-04T10:55:05.886Z,5675
2023-05-04T10:56:05.700Z,5675
2023-05-04T10:57:05.697Z,5675
2023-05-04T10:58:05.698Z,5675
2023-05-04T10:59:05.699Z,5675
2023-05-04T11:00:05.697Z,5675
2023-05-04T11:01:05.744Z,5675
2023-05-04T11:02:05.750Z,5675
2023-05-04T11:03:05.745Z,5675
2023-05-04T11:04:05.713Z,5675
2023-05-04T11:05:06.002Z,5675
2023-05-04T11:06:05.714Z,5675
2023-05-04T11:07:05.711Z,5675
2023-05-04T11:08:05.712Z,5675
2023-05-04T11:09:05.711Z,5675
2023-05-04T11:10:05.707Z,5675
2023-05-04T11:11:05.712Z,5675
2023-05-04T11:12:05.721Z,5675
2023-05-04T11:13:06.484Z,5675
2023-05-04T11:14:05.723Z,5675
2023-05-04T11:15:05.933Z,5675
2023-05-04T11:16:05.753Z,5675
2023-05-04T11:17:12.683Z,5675
2023-05-04T11:18:05.765Z,5675
2023-05-04T11:19:05.731Z,5675
2023-05-04T11:20:05.731Z,5675
2023-05-04T11:21:05.735Z,5675
2023-05-04T11:22:05.733Z,5675
2023-05-04T11:23:05.738Z,5675
2023-05-04T11:24:05.735Z,5675
2023-05-04T11:25:05.914Z,5675
2023-05-04T11:26:05.740Z,5675
2023-05-04T11:27:05.738Z,5675
2023-05-04T11:28:05.738Z,5675
2023-05-04T11:29:05.750Z,5675
2023-05-04T11:30:05.742Z,5675
2023-05-04T11:31:05.766Z,5675
2023-05-04T11:32:05.738Z,5675
2023-05-04T11:33:05.792Z,5675
2023-05-04T11:34:05.740Z,5675
2023-05-04T11:35:05.894Z,5675
2023-05-04T11:36:05.750Z,5675
2023-05-04T11:37:05.742Z,5675
2023-05-04T11:38:05.749Z,5675
2023-05-04T11:39:05.747Z,5675
2023-05-04T11:40:05.748Z,5675
2023-05-04T11:41:05.763Z,5675
2023-05-04T11:42:05.755Z,5675
2023-05-04T11:43:05.757Z,5675
2023-05-04T11:44:05.757Z,5675
2023-05-04T11:45:05.885Z,5675
2023-05-04T11:46:05.776Z,5675
2023-05-04T11:47:05.774Z,5675
2023-05-04T11:48:05.778Z,5675
2023-05-04T11:49:05.807Z,5675
2023-05-04T11:50:05.764Z,5675
2023-05-04T11:51:05.763Z,5675
2023-05-04T11:52:05.781Z,5675
2023-05-04T11:53:05.787Z,5675
2023-05-04T11:54:05.769Z,5675
2023-05-04T11:55:06.052Z,5675
2023-05-04T11:56:05.776Z,5675
2023-05-04T11:57:05.774Z,5675
2023-05-04T11:58:05.773Z,5675
2023-05-04T11:59:05.776Z,5675
2023-05-04T12:00:05.789Z,5675
2023-05-04T12:01:05.774Z,5675
2023-05-04T12:02:05.781Z,5675
2023-05-04T12:03:05.915Z,5675
2023-05-04T12:04:05.972Z,5675
2023-05-04T12:05:05.918Z,5675
2023-05-04T12:06:06.036Z,5675
2023-05-04T12:07:05.781Z,5675
2023-05-04T12:08:05.792Z,5675
2023-05-04T12:09:05.778Z,5675
2023-05-04T12:10:05.788Z,5675
2023-05-04T12:11:05.780Z,5675
2023-05-04T12:12:05.787Z,5675
2023-05-04T12:13:05.836Z,5675
2023-05-04T12:14:05.778Z,5675
2023-05-04T12:15:05.920Z,5675
2023-05-04T12:16:05.829Z,5675
2023-05-04T12:17:05.784Z,5675
2023-05-04T12:18:05.810Z,5675
2023-05-04T12:19:05.791Z,5675
2023-05-04T12:20:05.788Z,4200
2023-05-04T12:21:05.850Z,4531
2023-05-04T12:22:05.787Z,4490
2023-05-04T12:23:05.916Z,4403
2023-05-04T12:24:05.797Z,4251
2023-05-04T12:25:05.908Z,4385
2023-05-04T12:26:05.786Z,4296
2023-05-04T12:27:05.790Z,4282
2023-05-04T12:28:05.789Z,4282
2023-05-04T12:29:05.786Z,4519
2023-05-04T12:30:05.787Z,4327
2023-05-04T12:31:05.792Z,4521
2023-05-04T12:32:05.812Z,4681
2023-05-04T12:33:05.861Z,4713
2023-05-04T12:34:05.802Z,4718
2023-05-04T12:35:06.004Z,4718
2023-05-04T12:36:05.831Z,4718
2023-05-04T12:37:05.819Z,4718
2023-05-04T12:38:05.804Z,4718
2023-05-04T12:39:05.806Z,4694
2023-05-04T12:40:11.477Z,4670
2023-05-04T12:41:05.803Z,4625
2023-05-04T12:42:05.802Z,4556
2023-05-04T12:43:05.797Z,4556
2023-05-04T12:44:05.797Z,4759
2023-05-04T12:45:05.969Z,4767
2023-05-04T12:46:05.851Z,4752
2023-05-04T12:47:05.805Z,4756
2023-05-04T12:48:05.834Z,4761
2023-05-04T12:49:05.932Z,4732
2023-05-04T12:50:05.809Z,4757
2023-05-04T12:51:05.806Z,4790
2023-05-04T12:52:05.805Z,4710
2023-05-04T12:53:05.893Z,4571
2023-05-04T12:54:05.808Z,4584
2023-05-04T12:55:05.926Z,4710
2023-05-04T12:56:05.803Z,4694
2023-05-04T12:57:05.806Z,4694
2023-05-04T12:58:05.808Z,4725
2023-05-04T12:59:05.811Z,4791
2023-05-04T13:00:05.811Z,4681
2023-05-04T13:01:05.842Z,4587
2023-05-04T13:02:05.815Z,4672
2023-05-04T13:03:05.888Z,4701
2023-05-04T13:04:05.812Z,4808
2023-05-04T13:05:05.956Z,4775
2023-05-04T13:06:05.820Z,4808
2023-05-04T13:07:05.817Z,4817
2023-05-04T13:08:05.818Z,4806
2023-05-04T13:09:06.037Z,4803
2023-05-04T13:10:05.819Z,4787
2023-05-04T13:11:05.820Z,4777
2023-05-04T13:12:05.823Z,4782
2023-05-04T13:13:05.854Z,4801
2023-05-04T13:14:05.824Z,4798
2023-05-04T13:15:05.930Z,4785
2023-05-04T13:16:05.895Z,4785
2023-05-04T13:17:05.817Z,4777
2023-05-04T13:18:05.822Z,4794
2023-05-04T13:19:05.825Z,4749
2023-05-04T13:20:05.958Z,4728
2023-05-04T13:21:05.828Z,4554
2023-05-04T13:22:05.825Z,4637
2023-05-04T13:23:05.823Z,4715
2023-05-04T13:24:05.824Z,4740
2023-05-04T13:25:05.957Z,4680
2023-05-04T13:26:05.824Z,4772
2023-05-04T13:27:05.824Z,4773
2023-05-04T13:28:05.826Z,4639
2023-05-04T13:29:05.820Z,4701
2023-05-04T13:30:05.820Z,4599
2023-05-04T13:31:05.848Z,4554
2023-05-04T13:32:05.821Z,4734
2023-05-04T13:33:13.618Z,4804
2023-05-04T13:34:05.826Z,4720
2023-05-04T13:35:06.015Z,4694
2023-05-04T13:36:05.823Z,4687
2023-05-04T13:37:05.826Z,4687
2023-05-04T13:38:05.824Z,4759
2023-05-04T13:39:05.824Z,4620
2023-05-04T13:40:05.823Z,4641
2023-05-04T13:41:05.857Z,4553
2023-05-04T13:42:05.824Z,4549
2023-05-04T13:43:05.828Z,4573
2023-05-04T13:44:05.826Z,4680
2023-05-04T13:45:06.019Z,4688
2023-05-04T13:46:05.840Z,4668
2023-05-04T13:47:05.864Z,4668
2023-05-04T13:48:05.854Z,4600